sensor_id;sensor_type;location;lat;lon;timestamp;P1;durP1;ratioP1;P2;durP2;ratioP2
73695;SDS011;62000;42.262;12.210;2023-11-21T00:01:57;14.20;;;6.45;;
73695;SDS011;62000;42.262;12.210;2023-11-21T00:04:24;14.35;;;6.25;;
73695;SDS011;62000;42.262;12.210;2023-11-21T00:06:50;11.75;;;5.07;;
73695;SDS011;62000;42.262;12.210;2023-11-21T00:09:17;14.50;;;5.68;;
73695;SDS011;62000;42.262;12.210;2023-11-21T00:11:45;15.98;;;6.28;;
73695;SDS011;62000;42.262;12.210;2023-11-21T00:14:11;12.45;;;5.53;;
73695;SDS011;62000;42.262;12.210;2023-11-21T00:16:40;15.23;;;6.43;;
73695;SDS011;62000;42.262;12.210;2023-11-21T00:19:07;11.65;;;4.97;;
73695;SDS011;62000;42.262;12.210;2023-11-21T00:21:33;17.60;;;6.22;;
73695;SDS011;62000;42.262;12.210;2023-11-21T00:24:00;16.80;;;6.78;;
73695;SDS011;62000;42.262;12.210;2023-11-21T00:26:26;13.77;;;6.72;;
73695;SDS011;62000;42.262;12.210;2023-11-21T00:28:53;18.10;;;7.07;;
73695;SDS011;62000;42.262;12.210;2023-11-21T00:31:19;13.27;;;5.90;;
73695;SDS011;62000;42.262;12.210;2023-11-21T00:33:46;11.50;;;5.93;;
73695;SDS011;62000;42.262;12.210;2023-11-21T00:36:12;11.18;;;5.50;;
73695;SDS011;62000;42.262;12.210;2023-11-21T00:38:38;15.00;;;5.53;;
73695;SDS011;62000;42.262;12.210;2023-11-21T00:41:05;10.13;;;5.00;;
73695;SDS011;62000;42.262;12.210;2023-11-21T00:45:59;13.77;;;7.03;;
73695;SDS011;62000;42.262;12.210;2023-11-21T00:48:25;13.50;;;5.90;;
73695;SDS011;62000;42.262;12.210;2023-11-21T00:50:51;13.25;;;6.85;;
73695;SDS011;62000;42.262;12.210;2023-11-21T00:53:18;12.50;;;5.07;;
73695;SDS011;62000;42.262;12.210;2023-11-21T00:55:44;11.38;;;5.90;;
73695;SDS011;62000;42.262;12.210;2023-11-21T00:58:14;15.57;;;6.40;;
73695;SDS011;62000;42.262;12.210;2023-11-21T01:00:41;13.05;;;4.25;;
73695;SDS011;62000;42.262;12.210;2023-11-21T01:03:07;8.25;;;4.53;;
73695;SDS011;62000;42.262;12.210;2023-11-21T01:05:33;13.82;;;7.00;;
73695;SDS011;62000;42.262;12.210;2023-11-21T01:08:00;14.75;;;6.05;;
73695;SDS011;62000;42.262;12.210;2023-11-21T01:10:26;14.15;;;5.20;;
73695;SDS011;62000;42.262;12.210;2023-11-21T01:12:53;11.52;;;6.07;;
73695;SDS011;62000;42.262;12.210;2023-11-21T01:15:19;12.88;;;5.57;;
73695;SDS011;62000;42.262;12.210;2023-11-21T01:17:47;10.32;;;4.88;;
73695;SDS011;62000;42.262;12.210;2023-11-21T01:20:13;17.35;;;7.13;;
73695;SDS011;62000;42.262;12.210;2023-11-21T01:22:40;12.68;;;5.57;;
73695;SDS011;62000;42.262;12.210;2023-11-21T01:25:07;14.30;;;6.20;;
73695;SDS011;62000;42.262;12.210;2023-11-21T01:27:34;15.23;;;6.95;;
73695;SDS011;62000;42.262;12.210;2023-11-21T01:30:01;10.95;;;5.13;;
73695;SDS011;62000;42.262;12.210;2023-11-21T01:32:28;14.40;;;6.35;;
73695;SDS011;62000;42.262;12.210;2023-11-21T01:34:55;12.15;;;5.07;;
73695;SDS011;62000;42.262;12.210;2023-11-21T01:37:21;13.27;;;6.65;;
73695;SDS011;62000;42.262;12.210;2023-11-21T01:39:49;10.70;;;5.07;;
73695;SDS011;62000;42.262;12.210;2023-11-21T01:42:15;13.50;;;5.55;;
73695;SDS011;62000;42.262;12.210;2023-11-21T01:44:42;12.80;;;5.50;;
73695;SDS011;62000;42.262;12.210;2023-11-21T01:47:08;13.77;;;5.63;;
73695;SDS011;62000;42.262;12.210;2023-11-21T01:49:35;15.90;;;6.55;;
73695;SDS011;62000;42.262;12.210;2023-11-21T01:52:02;17.92;;;6.45;;
73695;SDS011;62000;42.262;12.210;2023-11-21T01:54:29;12.43;;;5.05;;
73695;SDS011;62000;42.262;12.210;2023-11-21T01:56:59;12.10;;;5.50;;
73695;SDS011;62000;42.262;12.210;2023-11-21T01:59:35;10.70;;;5.57;;
73695;SDS011;62000;42.262;12.210;2023-11-21T02:02:05;7.80;;;3.80;;
73695;SDS011;62000;42.262;12.210;2023-11-21T02:04:32;18.02;;;7.63;;
73695;SDS011;62000;42.262;12.210;2023-11-21T02:06:59;10.00;;;4.18;;
73695;SDS011;62000;42.262;12.210;2023-11-21T02:09:26;13.18;;;3.58;;
73695;SDS011;62000;42.262;12.210;2023-11-21T02:11:53;14.23;;;3.15;;
73695;SDS011;62000;42.262;12.210;2023-11-21T02:14:20;10.63;;;2.97;;
73695;SDS011;62000;42.262;12.210;2023-11-21T02:16:50;12.23;;;2.90;;
73695;SDS011;62000;42.262;12.210;2023-11-21T02:19:17;5.90;;;2.30;;
73695;SDS011;62000;42.262;12.210;2023-11-21T02:21:51;9.38;;;2.05;;
73695;SDS011;62000;42.262;12.210;2023-11-21T02:24:21;9.10;;;2.78;;
73695;SDS011;62000;42.262;12.210;2023-11-21T02:26:50;10.70;;;3.58;;
73695;SDS011;62000;42.262;12.210;2023-11-21T02:29:18;10.30;;;2.95;;
73695;SDS011;62000;42.262;12.210;2023-11-21T02:31:47;13.40;;;3.95;;
73695;SDS011;62000;42.262;12.210;2023-11-21T02:34:15;9.95;;;3.08;;
73695;SDS011;62000;42.262;12.210;2023-11-21T02:36:42;7.95;;;2.78;;
73695;SDS011;62000;42.262;12.210;2023-11-21T02:39:09;12.32;;;2.60;;
73695;SDS011;62000;42.262;12.210;2023-11-21T02:41:36;8.80;;;3.80;;
73695;SDS011;62000;42.262;12.210;2023-11-21T02:44:03;9.57;;;3.45;;
73695;SDS011;62000;42.262;12.210;2023-11-21T02:46:32;7.28;;;2.53;;
73695;SDS011;62000;42.262;12.210;2023-11-21T02:49:05;11.45;;;2.53;;
73695;SDS011;62000;42.262;12.210;2023-11-21T02:51:32;11.00;;;2.80;;
73695;SDS011;62000;42.262;12.210;2023-11-21T02:53:59;8.55;;;3.20;;
73695;SDS011;62000;42.262;12.210;2023-11-21T02:56:28;8.50;;;2.63;;
73695;SDS011;62000;42.262;12.210;2023-11-21T02:58:59;5.25;;;1.95;;
73695;SDS011;62000;42.262;12.210;2023-11-21T03:01:26;6.95;;;2.75;;
73695;SDS011;62000;42.262;12.210;2023-11-21T03:03:53;7.60;;;2.25;;
73695;SDS011;62000;42.262;12.210;2023-11-21T03:06:21;8.32;;;2.28;;
73695;SDS011;62000;42.262;12.210;2023-11-21T03:08:47;6.72;;;2.50;;
73695;SDS011;62000;42.262;12.210;2023-11-21T03:11:14;10.15;;;2.55;;
73695;SDS011;62000;42.262;12.210;2023-11-21T03:13:40;5.40;;;2.13;;
73695;SDS011;62000;42.262;12.210;2023-11-21T03:16:11;11.70;;;3.63;;
73695;SDS011;62000;42.262;12.210;2023-11-21T03:18:38;13.10;;;3.58;;
73695;SDS011;62000;42.262;12.210;2023-11-21T03:21:04;9.55;;;2.58;;
73695;SDS011;62000;42.262;12.210;2023-11-21T03:23:31;10.10;;;2.67;;
73695;SDS011;62000;42.262;12.210;2023-11-21T03:25:58;17.35;;;3.85;;
73695;SDS011;62000;42.262;12.210;2023-11-21T03:28:25;9.48;;;2.28;;
73695;SDS011;62000;42.262;12.210;2023-11-21T03:30:55;11.23;;;2.15;;
73695;SDS011;62000;42.262;12.210;2023-11-21T03:33:22;10.75;;;3.67;;
73695;SDS011;62000;42.262;12.210;2023-11-21T03:35:48;7.35;;;3.03;;
73695;SDS011;62000;42.262;12.210;2023-11-21T03:38:15;9.90;;;3.15;;
73695;SDS011;62000;42.262;12.210;2023-11-21T03:40:41;6.45;;;1.83;;
73695;SDS011;62000;42.262;12.210;2023-11-21T03:43:08;13.48;;;2.45;;
73695;SDS011;62000;42.262;12.210;2023-11-21T03:45:34;11.77;;;3.05;;
73695;SDS011;62000;42.262;12.210;2023-11-21T03:48:01;10.73;;;1.85;;
73695;SDS011;62000;42.262;12.210;2023-11-21T03:50:28;13.88;;;2.90;;
73695;SDS011;62000;42.262;12.210;2023-11-21T03:52:55;6.78;;;1.65;;
73695;SDS011;62000;42.262;12.210;2023-11-21T03:55:21;13.10;;;3.10;;
73695;SDS011;62000;42.262;12.210;2023-11-21T03:57:50;7.28;;;1.85;;
73695;SDS011;62000;42.262;12.210;2023-11-21T04:00:17;10.13;;;1.75;;
73695;SDS011;62000;42.262;12.210;2023-11-21T04:02:45;10.52;;;2.47;;
73695;SDS011;62000;42.262;12.210;2023-11-21T04:05:11;10.45;;;1.77;;
73695;SDS011;62000;42.262;12.210;2023-11-21T04:07:38;10.15;;;3.10;;
73695;SDS011;62000;42.262;12.210;2023-11-21T04:10:05;8.57;;;2.25;;
73695;SDS011;62000;42.262;12.210;2023-11-21T04:12:37;7.18;;;1.65;;
73695;SDS011;62000;42.262;12.210;2023-11-21T04:15:03;14.50;;;1.70;;
73695;SDS011;62000;42.262;12.210;2023-11-21T04:17:30;8.05;;;1.38;;
73695;SDS011;62000;42.262;12.210;2023-11-21T04:19:56;11.43;;;1.50;;
73695;SDS011;62000;42.262;12.210;2023-11-21T04:22:22;6.82;;;1.70;;
73695;SDS011;62000;42.262;12.210;2023-11-21T04:24:49;8.27;;;1.35;;
73695;SDS011;62000;42.262;12.210;2023-11-21T04:27:16;6.60;;;1.40;;
73695;SDS011;62000;42.262;12.210;2023-11-21T04:29:43;6.93;;;1.40;;
73695;SDS011;62000;42.262;12.210;2023-11-21T04:32:10;16.63;;;1.70;;
73695;SDS011;62000;42.262;12.210;2023-11-21T04:34:38;8.00;;;2.15;;
73695;SDS011;62000;42.262;12.210;2023-11-21T04:37:04;5.45;;;1.38;;
73695;SDS011;62000;42.262;12.210;2023-11-21T04:41:58;4.70;;;1.27;;
73695;SDS011;62000;42.262;12.210;2023-11-21T04:44:24;4.15;;;1.15;;
73695;SDS011;62000;42.262;12.210;2023-11-21T04:46:51;6.63;;;1.73;;
73695;SDS011;62000;42.262;12.210;2023-11-21T04:49:17;6.55;;;1.33;;
73695;SDS011;62000;42.262;12.210;2023-11-21T04:51:44;7.15;;;1.40;;
73695;SDS011;62000;42.262;12.210;2023-11-21T04:54:10;6.85;;;1.48;;
73695;SDS011;62000;42.262;12.210;2023-11-21T04:56:37;6.95;;;1.52;;
73695;SDS011;62000;42.262;12.210;2023-11-21T04:59:03;4.93;;;1.30;;
73695;SDS011;62000;42.262;12.210;2023-11-21T05:01:30;5.95;;;1.50;;
73695;SDS011;62000;42.262;12.210;2023-11-21T05:03:56;5.60;;;1.17;;
73695;SDS011;62000;42.262;12.210;2023-11-21T05:06:22;7.63;;;1.40;;
73695;SDS011;62000;42.262;12.210;2023-11-21T05:08:49;8.40;;;1.25;;
73695;SDS011;62000;42.262;12.210;2023-11-21T05:11:28;10.88;;;1.45;;
73695;SDS011;62000;42.262;12.210;2023-11-21T05:13:57;6.60;;;1.50;;
73695;SDS011;62000;42.262;12.210;2023-11-21T05:16:26;5.82;;;1.13;;
73695;SDS011;62000;42.262;12.210;2023-11-21T05:18:53;10.18;;;1.65;;
73695;SDS011;62000;42.262;12.210;2023-11-21T05:21:24;5.50;;;0.93;;
73695;SDS011;62000;42.262;12.210;2023-11-21T05:23:50;6.05;;;1.20;;
73695;SDS011;62000;42.262;12.210;2023-11-21T05:26:17;6.80;;;1.05;;
73695;SDS011;62000;42.262;12.210;2023-11-21T05:28:43;9.07;;;1.40;;
73695;SDS011;62000;42.262;12.210;2023-11-21T05:31:10;6.85;;;1.40;;
73695;SDS011;62000;42.262;12.210;2023-11-21T05:33:36;7.20;;;1.48;;
73695;SDS011;62000;42.262;12.210;2023-11-21T05:36:03;9.43;;;1.13;;
73695;SDS011;62000;42.262;12.210;2023-11-21T05:38:29;7.80;;;1.20;;
73695;SDS011;62000;42.262;12.210;2023-11-21T05:40:56;5.65;;;1.20;;
73695;SDS011;62000;42.262;12.210;2023-11-21T05:43:24;5.68;;;1.10;;
73695;SDS011;62000;42.262;12.210;2023-11-21T05:45:50;11.93;;;1.80;;
73695;SDS011;62000;42.262;12.210;2023-11-21T05:48:17;9.88;;;1.33;;
73695;SDS011;62000;42.262;12.210;2023-11-21T05:50:44;6.40;;;1.20;;
73695;SDS011;62000;42.262;12.210;2023-11-21T05:53:10;11.30;;;1.50;;
73695;SDS011;62000;42.262;12.210;2023-11-21T05:55:37;7.15;;;1.33;;
73695;SDS011;62000;42.262;12.210;2023-11-21T05:58:04;12.55;;;1.58;;
73695;SDS011;62000;42.262;12.210;2023-11-21T06:02:58;5.03;;;0.93;;
73695;SDS011;62000;42.262;12.210;2023-11-21T06:05:25;5.30;;;1.23;;
73695;SDS011;62000;42.262;12.210;2023-11-21T06:07:52;7.03;;;1.75;;
73695;SDS011;62000;42.262;12.210;2023-11-21T06:10:20;9.25;;;1.83;;
73695;SDS011;62000;42.262;12.210;2023-11-21T06:12:47;4.90;;;1.35;;
73695;SDS011;62000;42.262;12.210;2023-11-21T06:15:13;6.55;;;1.48;;
73695;SDS011;62000;42.262;12.210;2023-11-21T06:17:41;7.10;;;1.83;;
73695;SDS011;62000;42.262;12.210;2023-11-21T06:20:10;6.93;;;1.25;;
73695;SDS011;62000;42.262;12.210;2023-11-21T06:22:41;8.40;;;1.55;;
73695;SDS011;62000;42.262;12.210;2023-11-21T06:25:08;6.60;;;1.20;;
73695;SDS011;62000;42.262;12.210;2023-11-21T06:27:37;4.80;;;1.33;;
73695;SDS011;62000;42.262;12.210;2023-11-21T06:30:04;11.10;;;1.63;;
73695;SDS011;62000;42.262;12.210;2023-11-21T06:32:32;9.65;;;1.52;;
73695;SDS011;62000;42.262;12.210;2023-11-21T06:34:58;5.40;;;1.45;;
73695;SDS011;62000;42.262;12.210;2023-11-21T06:37:26;4.80;;;1.17;;
73695;SDS011;62000;42.262;12.210;2023-11-21T06:39:53;8.00;;;1.23;;
73695;SDS011;62000;42.262;12.210;2023-11-21T06:42:19;4.28;;;1.10;;
73695;SDS011;62000;42.262;12.210;2023-11-21T06:44:46;4.25;;;1.13;;
73695;SDS011;62000;42.262;12.210;2023-11-21T06:47:13;5.90;;;0.90;;
73695;SDS011;62000;42.262;12.210;2023-11-21T06:49:41;6.63;;;1.30;;
73695;SDS011;62000;42.262;12.210;2023-11-21T06:52:07;4.47;;;1.50;;
73695;SDS011;62000;42.262;12.210;2023-11-21T06:54:34;5.15;;;1.08;;
73695;SDS011;62000;42.262;12.210;2023-11-21T06:57:00;6.65;;;1.25;;
73695;SDS011;62000;42.262;12.210;2023-11-21T06:59:28;4.82;;;1.00;;
73695;SDS011;62000;42.262;12.210;2023-11-21T07:01:55;7.53;;;1.20;;
73695;SDS011;62000;42.262;12.210;2023-11-21T07:04:21;5.95;;;1.15;;
73695;SDS011;62000;42.262;12.210;2023-11-21T07:06:48;7.07;;;1.17;;
73695;SDS011;62000;42.262;12.210;2023-11-21T07:09:14;7.43;;;1.50;;
73695;SDS011;62000;42.262;12.210;2023-11-21T07:11:41;4.60;;;1.15;;
73695;SDS011;62000;42.262;12.210;2023-11-21T07:14:07;10.38;;;1.55;;
73695;SDS011;62000;42.262;12.210;2023-11-21T07:16:34;7.80;;;1.52;;
73695;SDS011;62000;42.262;12.210;2023-11-21T07:19:06;5.72;;;1.40;;
73695;SDS011;62000;42.262;12.210;2023-11-21T07:21:33;6.25;;;1.20;;
73695;SDS011;62000;42.262;12.210;2023-11-21T07:24:00;7.93;;;1.50;;
73695;SDS011;62000;42.262;12.210;2023-11-21T07:26:27;5.05;;;0.90;;
73695;SDS011;62000;42.262;12.210;2023-11-21T07:28:53;4.95;;;1.10;;
73695;SDS011;62000;42.262;12.210;2023-11-21T07:31:21;6.40;;;1.00;;
73695;SDS011;62000;42.262;12.210;2023-11-21T07:33:48;5.97;;;0.80;;
73695;SDS011;62000;42.262;12.210;2023-11-21T07:36:15;5.13;;;0.77;;
73695;SDS011;62000;42.262;12.210;2023-11-21T07:38:43;7.50;;;0.85;;
73695;SDS011;62000;42.262;12.210;2023-11-21T07:41:10;2.97;;;0.65;;
73695;SDS011;62000;42.262;12.210;2023-11-21T07:43:36;3.22;;;0.70;;
73695;SDS011;62000;42.262;12.210;2023-11-21T07:46:03;11.85;;;1.40;;
73695;SDS011;62000;42.262;12.210;2023-11-21T07:48:30;5.43;;;0.82;;
73695;SDS011;62000;42.262;12.210;2023-11-21T07:50:57;5.95;;;0.95;;
73695;SDS011;62000;42.262;12.210;2023-11-21T07:53:26;4.93;;;0.80;;
73695;SDS011;62000;42.262;12.210;2023-11-21T07:56:00;7.70;;;3.40;;
73695;SDS011;62000;42.262;12.210;2023-11-21T07:58:32;46.03;;;14.68;;
73695;SDS011;62000;42.262;12.210;2023-11-21T08:00:59;41.90;;;13.85;;
73695;SDS011;62000;42.262;12.210;2023-11-21T08:03:26;15.63;;;6.13;;
73695;SDS011;62000;42.262;12.210;2023-11-21T08:05:53;13.55;;;4.13;;
73695;SDS011;62000;42.262;12.210;2023-11-21T08:08:20;11.70;;;2.58;;
73695;SDS011;62000;42.262;12.210;2023-11-21T08:10:46;6.10;;;1.38;;
73695;SDS011;62000;42.262;12.210;2023-11-21T08:13:13;6.70;;;2.28;;
73695;SDS011;62000;42.262;12.210;2023-11-21T08:15:43;8.05;;;1.10;;
73695;SDS011;62000;42.262;12.210;2023-11-21T08:18:10;7.30;;;1.00;;
73695;SDS011;62000;42.262;12.210;2023-11-21T08:20:38;5.57;;;1.70;;
73695;SDS011;62000;42.262;12.210;2023-11-21T08:23:05;8.20;;;1.27;;
73695;SDS011;62000;42.262;12.210;2023-11-21T08:25:32;5.28;;;1.52;;
73695;SDS011;62000;42.262;12.210;2023-11-21T08:28:00;9.63;;;1.65;;
73695;SDS011;62000;42.262;12.210;2023-11-21T08:30:27;7.68;;;1.63;;
73695;SDS011;62000;42.262;12.210;2023-11-21T08:32:56;3.85;;;1.13;;
73695;SDS011;62000;42.262;12.210;2023-11-21T08:35:25;5.05;;;1.10;;
73695;SDS011;62000;42.262;12.210;2023-11-21T08:37:52;7.63;;;1.25;;
73695;SDS011;62000;42.262;12.210;2023-11-21T08:40:19;7.60;;;1.48;;
73695;SDS011;62000;42.262;12.210;2023-11-21T08:42:46;10.07;;;1.98;;
73695;SDS011;62000;42.262;12.210;2023-11-21T08:45:14;6.88;;;1.77;;
73695;SDS011;62000;42.262;12.210;2023-11-21T08:47:40;4.53;;;1.40;;
73695;SDS011;62000;42.262;12.210;2023-11-21T08:50:09;4.35;;;1.10;;
73695;SDS011;62000;42.262;12.210;2023-11-21T08:52:37;5.15;;;1.77;;
73695;SDS011;62000;42.262;12.210;2023-11-21T08:55:04;5.40;;;1.45;;
73695;SDS011;62000;42.262;12.210;2023-11-21T08:57:37;4.55;;;1.25;;
73695;SDS011;62000;42.262;12.210;2023-11-21T09:00:04;5.53;;;1.50;;
73695;SDS011;62000;42.262;12.210;2023-11-21T09:02:35;5.93;;;1.38;;
73695;SDS011;62000;42.262;12.210;2023-11-21T09:05:07;5.35;;;0.98;;
73695;SDS011;62000;42.262;12.210;2023-11-21T09:10:01;6.40;;;1.35;;
73695;SDS011;62000;42.262;12.210;2023-11-21T09:12:28;5.32;;;1.00;;
73695;SDS011;62000;42.262;12.210;2023-11-21T09:14:54;4.68;;;1.00;;
73695;SDS011;62000;42.262;12.210;2023-11-21T09:17:21;5.05;;;0.82;;
73695;SDS011;62000;42.262;12.210;2023-11-21T09:19:47;6.47;;;1.20;;
73695;SDS011;62000;42.262;12.210;2023-11-21T09:22:17;6.55;;;0.80;;
73695;SDS011;62000;42.262;12.210;2023-11-21T09:24:43;10.45;;;1.05;;
73695;SDS011;62000;42.262;12.210;2023-11-21T09:27:10;6.40;;;1.30;;
73695;SDS011;62000;42.262;12.210;2023-11-21T09:29:37;6.07;;;1.20;;
73695;SDS011;62000;42.262;12.210;2023-11-21T09:32:06;6.82;;;1.33;;
73695;SDS011;62000;42.262;12.210;2023-11-21T09:34:34;5.20;;;0.95;;
73695;SDS011;62000;42.262;12.210;2023-11-21T09:37:05;3.70;;;0.90;;
73695;SDS011;62000;42.262;12.210;2023-11-21T09:39:32;7.38;;;1.02;;
73695;SDS011;62000;42.262;12.210;2023-11-21T09:42:20;3.47;;;1.00;;
73695;SDS011;62000;42.262;12.210;2023-11-21T09:44:58;8.30;;;1.10;;
73695;SDS011;62000;42.262;12.210;2023-11-21T09:47:30;6.47;;;1.13;;
73695;SDS011;62000;42.262;12.210;2023-11-21T09:49:56;8.75;;;2.13;;
73695;SDS011;62000;42.262;12.210;2023-11-21T09:52:26;11.32;;;2.83;;
73695;SDS011;62000;42.262;12.210;2023-11-21T09:54:53;9.80;;;1.63;;
73695;SDS011;62000;42.262;12.210;2023-11-21T09:57:23;6.82;;;1.85;;
73695;SDS011;62000;42.262;12.210;2023-11-21T09:59:53;7.05;;;1.27;;
73695;SDS011;62000;42.262;12.210;2023-11-21T10:02:25;7.70;;;1.63;;
73695;SDS011;62000;42.262;12.210;2023-11-21T10:04:54;7.50;;;1.17;;
73695;SDS011;62000;42.262;12.210;2023-11-21T10:07:20;3.05;;;0.47;;
73695;SDS011;62000;42.262;12.210;2023-11-21T10:09:51;3.95;;;0.95;;
73695;SDS011;62000;42.262;12.210;2023-11-21T10:12:17;7.20;;;1.40;;
73695;SDS011;62000;42.262;12.210;2023-11-21T10:14:48;6.07;;;0.80;;
73695;SDS011;62000;42.262;12.210;2023-11-21T10:17:15;3.05;;;0.80;;
73695;SDS011;62000;42.262;12.210;2023-11-21T10:19:45;3.30;;;0.60;;
73695;SDS011;62000;42.262;12.210;2023-11-21T10:22:14;6.05;;;0.80;;
73695;SDS011;62000;42.262;12.210;2023-11-21T10:24:41;4.43;;;1.20;;
73695;SDS011;62000;42.262;12.210;2023-11-21T10:27:09;8.80;;;0.82;;
73695;SDS011;62000;42.262;12.210;2023-11-21T10:29:35;4.60;;;0.50;;
73695;SDS011;62000;42.262;12.210;2023-11-21T10:32:02;4.05;;;0.60;;
73695;SDS011;62000;42.262;12.210;2023-11-21T10:34:29;3.05;;;0.45;;
73695;SDS011;62000;42.262;12.210;2023-11-21T10:36:55;3.65;;;0.60;;
73695;SDS011;62000;42.262;12.210;2023-11-21T10:39:24;8.32;;;0.70;;
73695;SDS011;62000;42.262;12.210;2023-11-21T10:41:56;7.45;;;0.75;;
73695;SDS011;62000;42.262;12.210;2023-11-21T10:44:23;4.50;;;0.73;;
73695;SDS011;62000;42.262;12.210;2023-11-21T10:46:51;4.70;;;0.82;;
73695;SDS011;62000;42.262;12.210;2023-11-21T10:49:25;4.95;;;0.52;;
73695;SDS011;62000;42.262;12.210;2023-11-21T10:51:54;7.03;;;1.88;;
73695;SDS011;62000;42.262;12.210;2023-11-21T10:56:49;5.97;;;0.75;;
73695;SDS011;62000;42.262;12.210;2023-11-21T10:59:17;7.22;;;0.80;;
73695;SDS011;62000;42.262;12.210;2023-11-21T11:01:46;6.22;;;0.73;;
73695;SDS011;62000;42.262;12.210;2023-11-21T11:04:15;8.23;;;0.63;;
73695;SDS011;62000;42.262;12.210;2023-11-21T11:06:44;12.18;;;1.15;;
73695;SDS011;62000;42.262;12.210;2023-11-21T11:09:13;4.70;;;0.43;;
73695;SDS011;62000;42.262;12.210;2023-11-21T11:11:40;4.88;;;0.47;;
73695;SDS011;62000;42.262;12.210;2023-11-21T11:14:13;6.38;;;0.43;;
73695;SDS011;62000;42.262;12.210;2023-11-21T11:16:40;4.85;;;0.70;;
73695;SDS011;62000;42.262;12.210;2023-11-21T11:19:08;3.85;;;0.80;;
73695;SDS011;62000;42.262;12.210;2023-11-21T11:27:02;6.65;;;0.95;;
73695;SDS011;62000;42.262;12.210;2023-11-21T11:30:08;7.32;;;0.57;;
73695;SDS011;62000;42.262;12.210;2023-11-21T11:35:07;4.50;;;1.30;;
73695;SDS011;62000;42.262;12.210;2023-11-21T11:37:36;9.10;;;0.68;;
73695;SDS011;62000;42.262;12.210;2023-11-21T11:40:05;7.55;;;0.85;;
73695;SDS011;62000;42.262;12.210;2023-11-21T11:42:32;9.68;;;1.35;;
73695;SDS011;62000;42.262;12.210;2023-11-21T11:44:59;8.55;;;1.48;;
73695;SDS011;62000;42.262;12.210;2023-11-21T11:52:36;5.57;;;0.32;;
73695;SDS011;62000;42.262;12.210;2023-11-21T11:55:05;4.93;;;0.63;;
73695;SDS011;62000;42.262;12.210;2023-11-21T11:57:33;5.32;;;0.65;;
73695;SDS011;62000;42.262;12.210;2023-11-21T12:00:07;6.07;;;0.70;;
73695;SDS011;62000;42.262;12.210;2023-11-21T12:02:40;7.60;;;1.02;;
73695;SDS011;62000;42.262;12.210;2023-11-21T12:05:10;6.28;;;0.95;;
73695;SDS011;62000;42.262;12.210;2023-11-21T12:07:40;6.20;;;0.60;;
73695;SDS011;62000;42.262;12.210;2023-11-21T12:10:07;6.55;;;0.75;;
73695;SDS011;62000;42.262;12.210;2023-11-21T12:12:37;3.15;;;0.63;;
73695;SDS011;62000;42.262;12.210;2023-11-21T12:17:30;7.32;;;0.80;;
73695;SDS011;62000;42.262;12.210;2023-11-21T12:20:03;9.65;;;1.10;;
73695;SDS011;62000;42.262;12.210;2023-11-21T12:22:31;8.55;;;1.20;;
73695;SDS011;62000;42.262;12.210;2023-11-21T12:24:57;3.40;;;0.90;;
73695;SDS011;62000;42.262;12.210;2023-11-21T12:27:24;17.42;;;1.20;;
73695;SDS011;62000;42.262;12.210;2023-11-21T12:29:50;6.97;;;1.05;;
73695;SDS011;62000;42.262;12.210;2023-11-21T12:32:17;8.80;;;0.82;;
73695;SDS011;62000;42.262;12.210;2023-11-21T12:34:44;6.50;;;1.15;;
73695;SDS011;62000;42.262;12.210;2023-11-21T12:37:10;4.82;;;0.75;;
73695;SDS011;62000;42.262;12.210;2023-11-21T12:39:37;4.78;;;0.60;;
73695;SDS011;62000;42.262;12.210;2023-11-21T12:42:03;9.27;;;1.15;;
73695;SDS011;62000;42.262;12.210;2023-11-21T12:44:31;15.70;;;1.15;;
73695;SDS011;62000;42.262;12.210;2023-11-21T12:46:58;4.75;;;0.75;;
73695;SDS011;62000;42.262;12.210;2023-11-21T12:49:25;5.03;;;0.50;;
73695;SDS011;62000;42.262;12.210;2023-11-21T12:51:51;9.88;;;1.52;;
73695;SDS011;62000;42.262;12.210;2023-11-21T12:54:19;4.15;;;0.52;;
73695;SDS011;62000;42.262;12.210;2023-11-21T12:56:46;7.63;;;0.90;;
73695;SDS011;62000;42.262;12.210;2023-11-21T12:59:12;5.45;;;0.70;;
73695;SDS011;62000;42.262;12.210;2023-11-21T13:01:42;5.45;;;1.00;;
73695;SDS011;62000;42.262;12.210;2023-11-21T13:04:08;10.32;;;0.90;;
73695;SDS011;62000;42.262;12.210;2023-11-21T13:06:36;11.25;;;1.13;;
73695;SDS011;62000;42.262;12.210;2023-11-21T13:09:09;6.40;;;0.65;;
73695;SDS011;62000;42.262;12.210;2023-11-21T13:11:43;10.45;;;1.20;;
73695;SDS011;62000;42.262;12.210;2023-11-21T13:16:37;8.73;;;0.82;;
73695;SDS011;62000;42.262;12.210;2023-11-21T13:19:04;12.27;;;1.60;;
73695;SDS011;62000;42.262;12.210;2023-11-21T13:21:31;11.85;;;0.88;;
73695;SDS011;62000;42.262;12.210;2023-11-21T13:23:57;8.32;;;1.15;;
73695;SDS011;62000;42.262;12.210;2023-11-21T13:26:24;7.35;;;0.82;;
73695;SDS011;62000;42.262;12.210;2023-11-21T13:28:51;6.25;;;0.60;;
73695;SDS011;62000;42.262;12.210;2023-11-21T13:31:17;7.18;;;0.82;;
73695;SDS011;62000;42.262;12.210;2023-11-21T13:33:52;9.77;;;1.25;;
73695;SDS011;62000;42.262;12.210;2023-11-21T13:36:24;8.85;;;1.42;;
73695;SDS011;62000;42.262;12.210;2023-11-21T13:38:55;11.38;;;1.63;;
73695;SDS011;62000;42.262;12.210;2023-11-21T13:41:24;4.50;;;0.60;;
73695;SDS011;62000;42.262;12.210;2023-11-21T13:43:56;14.65;;;1.30;;
73695;SDS011;62000;42.262;12.210;2023-11-21T13:46:41;8.02;;;1.17;;
73695;SDS011;62000;42.262;12.210;2023-11-21T13:49:07;3.08;;;0.52;;
73695;SDS011;62000;42.262;12.210;2023-11-21T13:51:36;7.63;;;0.80;;
73695;SDS011;62000;42.262;12.210;2023-11-21T13:54:11;12.20;;;1.10;;
73695;SDS011;62000;42.262;12.210;2023-11-21T13:56:38;14.52;;;0.95;;
73695;SDS011;62000;42.262;12.210;2023-11-21T13:59:06;6.82;;;1.08;;
73695;SDS011;62000;42.262;12.210;2023-11-21T14:01:53;3.45;;;0.77;;
73695;SDS011;62000;42.262;12.210;2023-11-21T14:04:21;9.20;;;1.52;;
73695;SDS011;62000;42.262;12.210;2023-11-21T14:06:56;11.50;;;1.75;;
73695;SDS011;62000;42.262;12.210;2023-11-21T14:09:26;10.05;;;1.23;;
73695;SDS011;62000;42.262;12.210;2023-11-21T14:11:59;10.82;;;2.15;;
73695;SDS011;62000;42.262;12.210;2023-11-21T14:14:28;12.13;;;1.42;;
73695;SDS011;62000;42.262;12.210;2023-11-21T14:16:55;12.82;;;1.40;;
73695;SDS011;62000;42.262;12.210;2023-11-21T14:19:21;8.80;;;1.00;;
73695;SDS011;62000;42.262;12.210;2023-11-21T14:21:52;12.10;;;1.20;;
73695;SDS011;62000;42.262;12.210;2023-11-21T14:24:19;9.70;;;1.23;;
73695;SDS011;62000;42.262;12.210;2023-11-21T14:26:46;11.65;;;1.20;;
73695;SDS011;62000;42.262;12.210;2023-11-21T14:29:12;22.63;;;3.00;;
73695;SDS011;62000;42.262;12.210;2023-11-21T14:31:45;19.33;;;8.50;;
73695;SDS011;62000;42.262;12.210;2023-11-21T14:34:12;17.33;;;3.33;;
73695;SDS011;62000;42.262;12.210;2023-11-21T14:36:40;13.35;;;2.35;;
73695;SDS011;62000;42.262;12.210;2023-11-21T14:39:08;9.35;;;1.50;;
73695;SDS011;62000;42.262;12.210;2023-11-21T14:41:46;15.55;;;1.55;;
73695;SDS011;62000;42.262;12.210;2023-11-21T14:44:12;8.80;;;1.30;;
73695;SDS011;62000;42.262;12.210;2023-11-21T14:46:41;11.82;;;1.25;;
73695;SDS011;62000;42.262;12.210;2023-11-21T14:49:12;11.80;;;1.40;;
73695;SDS011;62000;42.262;12.210;2023-11-21T14:51:48;13.60;;;1.58;;
73695;SDS011;62000;42.262;12.210;2023-11-21T14:54:29;10.95;;;1.58;;
73695;SDS011;62000;42.262;12.210;2023-11-21T14:57:12;10.32;;;1.90;;
73695;SDS011;62000;42.262;12.210;2023-11-21T14:59:45;7.38;;;1.38;;
73695;SDS011;62000;42.262;12.210;2023-11-21T15:02:23;18.60;;;2.50;;
73695;SDS011;62000;42.262;12.210;2023-11-21T15:05:10;8.02;;;1.13;;
73695;SDS011;62000;42.262;12.210;2023-11-21T15:07:41;14.07;;;1.90;;